Time;durP1;ratioP1;P1;durP2;ratioP2;P2;SDS_P1;SDS_P2;PMS_P1;PMS_P2;Temp;Humidity;BMP_temperature;BMP_pressure;BME280_temperature;BME280_humidity;BME280_pressure;Samples;Min_cycle;Max_cycle;Signal;HPM_P1;HPM_P2
2022/02/15 00:00:29;;;;;;;7.63;0.85;;;10.20;89.10;;;;;;5012576;28;20049;-71
2022/02/15 00:02:54;;;;;;;5.40;1.30;;;10.20;89.00;;;;;;5012026;28;20153;-72
2022/02/15 00:05:20;;;;;;;3.92;1.17;;;10.10;89.20;;;;;;5011874;28;20057;-72
2022/02/15 00:07:46;;;;;;;4.40;0.80;;;10.10;89.30;;;;;;5011896;28;20049;-72
2022/02/15 00:10:11;;;;;;;7.80;1.35;;;10.10;89.20;;;;;;5012059;28;20470;-72
2022/02/15 00:12:38;;;;;;;8.57;1.30;;;10.10;89.20;;;;;;5011637;28;20408;-73
2022/02/15 00:15:07;;;;;;;6.25;0.95;;;10.10;89.50;;;;;;4994871;28;20439;-74
2022/02/15 00:17:37;;;;;;;10.43;1.35;;;10.10;89.60;;;;;;5011612;28;20235;-72
2022/02/15 00:20:04;;;;;;;8.43;1.25;;;10.00;89.30;;;;;;5011616;28;20026;-70
2022/02/15 00:22:30;;;;;;;7.50;1.20;;;10.00;89.60;;;;;;5011575;28;20442;-73
2022/02/15 00:24:56;;;;;;;4.95;1.20;;;9.90;90.40;;;;;;5011506;28;20030;-72
2022/02/15 00:27:22;;;;;;;8.57;1.38;;;9.90;90.40;;;;;;5011999;28;20049;-72
2022/02/15 00:29:48;;;;;;;9.50;1.40;;;10.00;90.00;;;;;;5011350;28;20497;-73
2022/02/15 00:32:13;;;;;;;5.60;1.30;;;9.90;90.60;;;;;;5011533;28;20360;-72
2022/02/15 00:34:39;;;;;;;7.75;1.20;;;9.90;90.40;;;;;;5011371;28;20416;-73
2022/02/15 00:37:04;;;;;;;5.25;1.38;;;10.00;90.00;;;;;;5011275;28;20129;-73
2022/02/15 00:39:30;;;;;;;9.32;1.30;;;9.90;90.60;;;;;;5011982;28;20278;-74
2022/02/15 00:41:56;;;;;;;3.90;1.50;;;9.90;90.50;;;;;;5011321;28;20113;-72
2022/02/15 00:44:21;;;;;;;8.68;1.25;;;9.90;90.70;;;;;;5011251;28;20038;-72
2022/02/15 00:46:48;;;;;;;5.90;0.80;;;9.80;90.80;;;;;;5011163;28;20049;-72
2022/02/15 00:49:13;;;;;;;6.40;1.88;;;9.70;90.90;;;;;;5011116;28;20120;-72
2022/02/15 00:51:39;;;;;;;4.38;1.00;;;9.80;90.90;;;;;;4992769;28;20172;-72
2022/02/15 00:54:04;;;;;;;9.98;1.30;;;10.00;90.40;;;;;;5011433;28;20022;-73
2022/02/15 00:56:30;;;;;;;8.05;1.60;;;9.80;90.90;;;;;;4993917;28;20088;-72
2022/02/15 00:58:56;;;;;;;7.75;1.05;;;9.80;91.00;;;;;;5010948;28;20044;-72
2022/02/15 01:01:21;;;;;;;13.98;2.17;;;9.80;91.10;;;;;;5010916;28;20034;-72
2022/02/15 01:03:47;;;;;;;6.60;1.60;;;9.80;91.10;;;;;;5010858;28;20057;-73
2022/02/15 01:06:13;;;;;;;5.22;1.45;;;9.80;91.10;;;;;;5011417;28;20029;-72
2022/02/15 01:08:39;;;;;;;6.00;1.38;;;9.80;91.30;;;;;;4993514;28;20394;-73
2022/02/15 01:11:05;;;;;;;6.95;1.40;;;9.70;91.40;;;;;;4993275;28;20129;-73
2022/02/15 01:13:31;;;;;;;5.75;1.58;;;9.70;91.50;;;;;;5010933;28;20511;-73
2022/02/15 01:15:56;;;;;;;4.57;1.38;;;9.70;91.50;;;;;;5010874;28;20026;-73
2022/02/15 01:18:26;;;;;;;6.07;1.27;;;9.70;91.70;;;;;;5011231;28;20048;-73
2022/02/15 01:20:52;;;;;;;4.72;1.17;;;9.70;91.60;;;;;;5010797;28;20022;-73
2022/02/15 01:23:18;;;;;;;12.25;1.58;;;9.70;91.70;;;;;;5010941;28;20360;-73
2022/02/15 01:25:43;;;;;;;6.85;1.65;;;9.60;91.80;;;;;;5010793;28;20049;-73
2022/02/15 01:28:09;;;;;;;9.25;1.42;;;9.60;91.80;;;;;;5010543;28;20034;-74
2022/02/15 01:30:35;;;;;;;8.40;1.50;;;9.60;91.90;;;;;;5011245;28;20022;-73
2022/02/15 01:33:00;;;;;;;11.20;1.88;;;9.50;92.00;;;;;;5010477;28;20348;-74
2022/02/15 01:35:26;;;;;;;8.07;0.98;;;9.60;92.00;;;;;;5010770;28;20301;-74
2022/02/15 01:37:51;;;;;;;5.72;1.27;;;9.60;92.00;;;;;;5010614;28;20041;-74
2022/02/15 01:40:17;;;;;;;6.20;1.15;;;9.60;92.10;;;;;;5010599;28;20399;-74
2022/02/15 01:42:43;;;;;;;5.60;1.33;;;9.50;92.20;;;;;;4993186;28;20088;-73
2022/02/15 01:45:11;;;;;;;7.35;0.93;;;9.50;92.30;;;;;;5011063;28;20026;-74
2022/02/15 01:47:36;;;;;;;5.68;1.33;;;9.50;92.30;;;;;;5010370;28;20034;-74
2022/02/15 01:50:04;;;;;;;10.43;1.60;;;9.50;92.30;;;;;;5010417;28;20403;-72
2022/02/15 01:52:29;;;;;;;6.00;1.30;;;9.50;92.40;;;;;;5010476;28;20042;-74
2022/02/15 01:54:58;;;;;;;4.15;1.45;;;9.50;92.50;;;;;;5010336;28;20044;-72
2022/02/15 01:57:25;;;;;;;8.80;1.63;;;9.50;92.50;;;;;;5011229;28;20105;-72
2022/02/15 01:59:54;;;;;;;7.45;1.75;;;9.50;92.60;;;;;;5010524;28;20037;-73
2022/02/15 02:02:20;;;;;;;5.28;1.52;;;9.50;92.60;;;;;;5010939;28;20053;-74
2022/02/15 02:07:30;;;;;;;8.10;2.03;;;9.40;92.80;;;;;;5014573;28;20040;-73
2022/02/15 02:09:56;;;;;;;6.00;1.80;;;9.40;92.70;;;;;;5014009;28;20113;-74
2022/02/15 02:12:22;;;;;;;11.23;2.08;;;9.50;92.80;;;;;;5014500;28;20030;-74
2022/02/15 02:15:08;;;;;;;5.68;2.15;;;9.50;92.80;;;;;;5014025;28;20460;-74
2022/02/15 02:17:35;;;;;;;12.30;2.05;;;9.60;92.80;;;;;;5014025;28;20125;-73
2022/02/15 02:20:03;;;;;;;9.50;2.38;;;9.50;92.80;;;;;;5013921;28;20044;-74
2022/02/15 02:22:29;;;;;;;7.50;2.47;;;9.50;92.80;;;;;;5013874;28;20030;-73
2022/02/15 02:24:56;;;;;;;8.95;2.17;;;9.50;93.00;;;;;;4996393;28;20057;-72
2022/02/15 02:27:30;;;;;;;7.00;2.22;;;9.50;93.00;;;;;;5014438;28;20049;-72
2022/02/15 02:29:57;;;;;;;6.50;2.13;;;9.50;93.00;;;;;;5013673;28;20057;-74
2022/02/15 02:32:24;;;;;;;7.15;2.22;;;9.50;93.00;;;;;;5013016;28;20030;-74
2022/02/15 02:34:51;;;;;;;10.13;2.72;;;9.50;93.00;;;;;;4994175;28;20503;-74
2022/02/15 02:37:17;;;;;;;9.65;2.25;;;9.60;93.00;;;;;;5013665;28;20038;-74
2022/02/15 02:39:48;;;;;;;9.63;2.63;;;9.60;93.00;;;;;;5013583;28;20097;-75
2022/02/15 02:42:17;;;;;;;11.40;2.40;;;9.50;93.10;;;;;;5014340;28;20033;-72
2022/02/15 02:44:43;;;;;;;10.45;2.85;;;9.50;93.10;;;;;;5013574;28;20109;-73
2022/02/15 02:47:09;;;;;;;6.65;2.33;;;9.50;93.10;;;;;;5013354;28;20029;-72
2022/02/15 02:49:34;;;;;;;7.15;2.35;;;9.60;93.10;;;;;;5013247;28;20038;-73
2022/02/15 02:52:01;;;;;;;9.68;3.03;;;9.50;93.10;;;;;;4995732;28;20052;-74
2022/02/15 02:54:27;;;;;;;15.07;3.40;;;9.60;93.20;;;;;;4996156;28;20356;-72
2022/02/15 02:56:53;;;;;;;7.20;2.55;;;9.50;93.10;;;;;;5013270;28;20061;-73
2022/02/15 02:59:19;;;;;;;10.68;3.45;;;9.50;93.20;;;;;;5013345;28;20034;-72
2022/02/15 03:01:46;;;;;;;7.13;3.00;;;9.50;93.10;;;;;;5013144;28;20041;-74
2022/02/15 03:04:12;;;;;;;10.45;3.22;;;9.60;93.00;;;;;;4995734;28;20033;-74
2022/02/15 03:06:37;;;;;;;13.48;3.55;;;9.60;93.00;;;;;;5012967;28;20022;-73
2022/02/15 03:09:04;;;;;;;10.30;3.63;;;9.50;93.00;;;;;;5013730;28;20022;-74
2022/02/15 03:11:30;;;;;;;10.50;3.90;;;9.50;93.00;;;;;;5012923;28;20451;-73
2022/02/15 03:13:56;;;;;;;9.55;4.10;;;9.50;93.00;;;;;;5012142;28;20034;-73
2022/02/15 03:16:23;;;;;;;10.27;4.20;;;9.50;93.00;;;;;;5012784;28;20030;-74
2022/02/15 03:18:49;;;;;;;10.50;3.70;;;9.50;93.00;;;;;;5012826;28;20014;-73
2022/02/15 03:21:15;;;;;;;15.15;4.60;;;9.60;93.10;;;;;;5013093;28;20034;-73
2022/02/15 03:23:41;;;;;;;9.80;4.43;;;9.50;93.00;;;;;;4995396;28;20383;-74
2022/02/15 03:26:07;;;;;;;10.25;3.70;;;9.60;93.30;;;;;;4995287;28;20030;-74
2022/02/15 03:28:33;;;;;;;7.35;4.38;;;9.50;93.10;;;;;;5012484;28;20053;-72
2022/02/15 03:30:58;;;;;;;12.90;4.55;;;9.40;93.60;;;;;;5012595;28;20113;-74
2022/02/15 03:33:24;;;;;;;8.77;3.90;;;9.40;93.20;;;;;;5012989;28;20102;-74
2022/02/15 03:35:50;;;;;;;9.52;4.25;;;9.40;93.20;;;;;;5012792;28;20401;-74
2022/02/15 03:38:16;;;;;;;6.10;4.20;;;9.40;93.30;;;;;;5012596;28;20061;-73
2022/02/15 03:43:25;;;;;;;9.23;4.20;;;9.40;93.10;;;;;;5012482;28;20056;-72
2022/02/15 03:45:51;;;;;;;12.73;4.88;;;9.40;93.20;;;;;;5012215;28;20022;-73
2022/02/15 03:48:16;;;;;;;9.93;5.03;;;9.40;93.10;;;;;;4995328;28;20505;-73
2022/02/15 03:50:42;;;;;;;10.32;4.85;;;9.40;93.20;;;;;;5012357;28;20371;-72
2022/02/15 03:53:08;;;;;;;13.27;5.38;;;9.40;93.20;;;;;;5012026;28;20042;-72
2022/02/15 03:55:34;;;;;;;11.20;4.80;;;9.40;93.30;;;;;;4994713;28;20037;-71
2022/02/15 03:58:00;;;;;;;8.70;4.85;;;9.40;93.30;;;;;;4994604;28;20034;-73
2022/02/15 04:00:25;;;;;;;9.27;4.82;;;9.50;93.20;;;;;;5012731;28;20073;-72
2022/02/15 04:02:51;;;;;;;11.88;5.53;;;9.50;93.30;;;;;;5011907;28;20084;-73
2022/02/15 04:05:17;;;;;;;13.23;4.97;;;9.50;93.20;;;;;;5012202;28;20044;-73
2022/02/15 04:07:42;;;;;;;11.05;5.35;;;9.50;93.10;;;;;;5011960;28;20364;-74
2022/02/15 04:10:08;;;;;;;10.45;5.47;;;9.60;93.10;;;;;;4994634;28;20467;-74
2022/02/15 04:12:34;;;;;;;8.60;5.10;;;9.60;93.10;;;;;;4994932;28;20415;-73
2022/02/15 04:14:59;;;;;;;9.50;5.18;;;9.60;93.10;;;;;;5012014;28;20029;-72
2022/02/15 04:17:25;;;;;;;11.63;5.38;;;9.50;93.10;;;;;;5011620;28;20042;-74
2022/02/15 04:19:51;;;;;;;13.00;5.68;;;9.50;93.20;;;;;;5011844;28;20034;-74
2022/02/15 04:22:16;;;;;;;9.73;5.22;;;9.50;93.20;;;;;;5011861;28;20490;-73
2022/02/15 04:24:48;;;;;;;9.15;4.60;;;9.50;93.30;;;;;;5011489;28;20359;-72
2022/02/15 04:27:15;;;;;;;7.00;4.13;;;9.50;93.20;;;;;;5011877;28;20023;-73
2022/02/15 04:29:41;;;;;;;9.57;4.37;;;9.50;93.20;;;;;;5011433;28;20399;-73
2022/02/15 04:32:08;;;;;;;6.50;4.45;;;9.50;93.20;;;;;;5011343;28;20307;-74
2022/02/15 04:34:33;;;;;;;10.73;4.65;;;9.40;93.30;;;;;;4994112;28;20066;-73
2022/02/15 04:36:59;;;;;;;9.43;4.45;;;9.40;93.30;;;;;;5011418;28;20054;-73
2022/02/15 04:39:25;;;;;;;9.95;4.47;;;9.40;93.60;;;;;;4994548;28;20025;-73
2022/02/15 04:41:50;;;;;;;13.18;5.00;;;9.40;93.40;;;;;;4994352;28;20113;-73
2022/02/15 04:44:16;;;;;;;9.95;4.38;;;9.40;93.20;;;;;;5011501;28;20529;-73
2022/02/15 04:46:41;;;;;;;12.98;5.10;;;9.50;93.30;;;;;;5011182;28;20463;-72
2022/02/15 04:49:07;;;;;;;14.65;4.65;;;9.40;93.50;;;;;;5011458;28;20522;-73
2022/02/15 04:51:32;;;;;;;11.25;5.28;;;9.30;93.50;;;;;;5011829;28;20612;-74
2022/02/15 04:53:59;;;;;;;13.10;5.57;;;9.40;93.50;;;;;;5011017;28;20033;-75
2022/02/15 04:56:24;;;;;;;9.05;5.38;;;9.50;93.40;;;;;;5011352;28;20113;-73
2022/02/15 04:58:50;;;;;;;8.30;4.63;;;9.50;93.30;;;;;;4993875;28;20121;-72
2022/02/15 05:01:16;;;;;;;14.32;5.20;;;9.50;93.30;;;;;;5011120;28;20030;-72
2022/02/15 05:03:42;;;;;;;12.07;5.88;;;9.50;93.30;;;;;;5011268;28;20018;-73
2022/02/15 05:06:08;;;;;;;12.52;5.57;;;9.50;93.40;;;;;;5011540;28;20022;-72
2022/02/15 05:08:34;;;;;;;10.05;5.47;;;9.70;93.40;;;;;;4993882;28;20034;-72
2022/02/15 05:10:59;;;;;;;14.73;6.38;;;9.60;93.30;;;;;;5011076;28;20379;-72
2022/02/15 05:13:25;;;;;;;14.80;6.35;;;9.60;93.30;;;;;;4993406;28;20464;-72
2022/02/15 05:15:50;;;;;;;15.43;6.38;;;9.60;93.50;;;;;;4993806;28;20053;-74
2022/02/15 05:18:16;;;;;;;17.98;6.20;;;9.60;93.40;;;;;;5011329;28;20032;-73
2022/02/15 05:20:42;;;;;;;15.55;6.38;;;9.60;93.50;;;;;;5010767;28;20034;-73
2022/02/15 05:23:07;;;;;;;15.13;6.95;;;9.60;93.50;;;;;;5010605;28;20053;-74
2022/02/15 05:25:34;;;;;;;12.13;6.85;;;9.60;93.70;;;;;;5010676;28;20030;-72
2022/02/15 05:27:59;;;;;;;17.42;6.93;;;9.50;93.80;;;;;;5010709;28;20054;-74
2022/02/15 05:30:27;;;;;;;20.52;7.43;;;9.50;93.80;;;;;;5010939;28;20151;-72
2022/02/15 05:32:53;;;;;;;11.60;6.75;;;9.60;93.80;;;;;;5010798;28;20042;-72
2022/02/15 05:35:18;;;;;;;15.55;7.18;;;9.60;93.80;;;;;;5010541;28;20353;-73
2022/02/15 05:37:44;;;;;;;15.20;6.63;;;9.60;93.80;;;;;;5011767;28;20032;-73
2022/02/15 05:40:11;;;;;;;15.63;7.32;;;9.50;93.90;;;;;;5014640;28;20034;-73
2022/02/15 05:42:37;;;;;;;19.95;8.13;;;9.50;94.00;;;;;;5014408;28;20354;-72
2022/02/15 05:45:03;;;;;;;15.77;7.70;;;9.50;94.10;;;;;;4997442;28;20121;-73
2022/02/15 05:47:29;;;;;;;11.77;6.95;;;9.40;94.20;;;;;;5014739;28;20049;-73
2022/02/15 05:52:39;;;;;;;12.07;7.25;;;9.60;94.00;;;;;;5014260;28;20056;-73
2022/02/15 05:55:05;;;;;;;20.60;8.65;;;9.50;94.30;;;;;;5014383;28;20029;-73
2022/02/15 05:57:30;;;;;;;15.60;7.93;;;9.60;94.10;;;;;;5014740;28;20459;-73
2022/02/15 05:59:56;;;;;;;18.23;7.65;;;9.50;94.10;;;;;;5014169;28;20045;-74
2022/02/15 06:02:22;;;;;;;17.00;6.90;;;9.60;94.20;;;;;;4996739;28;20034;-74
2022/02/15 06:04:47;;;;;;;16.80;8.23;;;9.60;94.40;;;;;;5014180;28;20045;-71
2022/02/15 06:07:13;;;;;;;12.23;7.78;;;9.60;94.20;;;;;;5014130;28;20026;-72
2022/02/15 06:09:39;;;;;;;16.00;7.93;;;9.60;94.10;;;;;;5013896;28;20040;-74
2022/02/15 06:12:06;;;;;;;19.60;8.02;;;9.60;94.10;;;;;;5014382;28;20492;-73
2022/02/15 06:14:31;;;;;;;17.85;7.90;;;9.60;94.10;;;;;;5014193;28;20026;-73
2022/02/15 06:16:57;;;;;;;11.82;7.63;;;9.60;94.10;;;;;;5013899;28;20036;-73
2022/02/15 06:19:23;;;;;;;15.02;8.00;;;9.60;94.10;;;;;;4996582;28;20018;-73
2022/02/15 06:21:48;;;;;;;20.45;8.15;;;9.60;94.10;;;;;;5012967;28;20030;-72
2022/02/15 06:24:14;;;;;;;14.13;7.75;;;9.50;94.10;;;;;;5014386;28;20514;-73
2022/02/15 06:26:40;;;;;;;15.82;7.90;;;9.60;94.00;;;;;;5014224;28;20034;-73
2022/02/15 06:29:05;;;;;;;14.75;7.43;;;9.60;94.00;;;;;;5013710;28;20058;-72
2022/02/15 06:31:31;;;;;;;23.88;8.27;;;9.70;94.00;;;;;;5013850;28;20041;-73
2022/02/15 06:33:56;;;;;;;21.50;7.57;;;9.70;93.90;;;;;;5014092;28;20113;-74
2022/02/15 06:36:22;;;;;;;23.63;8.40;;;9.70;94.10;;;;;;5014526;28;20104;-73
2022/02/15 06:38:48;;;;;;;20.63;8.65;;;9.80;93.90;;;;;;5013751;28;20037;-74
2022/02/15 06:41:13;;;;;;;16.42;8.85;;;9.70;93.90;;;;;;5013628;28;20034;-74
2022/02/15 06:43:39;;;;;;;18.52;8.40;;;9.70;93.90;;;;;;5013772;28;20443;-74
2022/02/15 06:46:05;;;;;;;22.90;8.60;;;9.70;93.90;;;;;;5013906;28;20029;-75
2022/02/15 06:48:30;;;;;;;18.98;8.38;;;9.70;93.90;;;;;;4998752;28;20464;-74
2022/02/15 06:50:56;;;;;;;25.85;8.57;;;9.70;94.00;;;;;;4994071;28;20121;-75
2022/02/15 06:53:21;;;;;;;16.77;8.35;;;9.70;93.90;;;;;;4994624;28;20066;-73
2022/02/15 06:55:47;;;;;;;22.38;8.35;;;9.70;93.90;;;;;;4994367;28;20112;-73
2022/02/15 06:58:13;;;;;;;15.27;7.95;;;9.70;93.90;;;;;;4994025;28;20376;-72
2022/02/15 07:00:38;;;;;;;13.88;7.97;;;9.70;93.80;;;;;;4993790;28;20113;-72
2022/02/15 07:03:05;;;;;;;18.27;8.02;;;9.80;93.80;;;;;;4977941;28;20019;-78
2022/02/15 07:05:31;;;;;;;14.43;8.18;;;9.70;93.80;;;;;;4994024;28;20084;-75
2022/02/15 07:07:56;;;;;;;17.23;7.78;;;9.70;93.90;;;;;;4993813;28;20031;-75
2022/02/15 07:10:22;;;;;;;17.17;8.40;;;9.70;93.90;;;;;;4993861;28;20034;-76
2022/02/15 07:12:48;;;;;;;20.55;8.90;;;9.70;93.90;;;;;;4993703;28;20042;-74
2022/02/15 07:15:14;;;;;;;16.88;9.23;;;9.70;93.90;;;;;;4993123;28;20038;-75
2022/02/15 07:17:40;;;;;;;19.20;8.25;;;9.70;94.00;;;;;;4993909;28;20031;-75
2022/02/15 07:20:06;;;;;;;20.08;8.32;;;9.70;94.00;;;;;;4993874;28;20440;-73
2022/02/15 07:22:33;;;;;;;14.05;8.38;;;9.70;94.10;;;;;;4993495;28;20483;-77
2022/02/15 07:24:58;;;;;;;17.55;8.25;;;9.70;94.10;;;;;;4992750;28;20035;-74
2022/02/15 07:27:26;;;;;;;18.73;8.50;;;9.70;94.10;;;;;;4994312;28;20030;-73
2022/02/15 07:29:52;;;;;;;13.88;8.77;;;9.70;94.00;;;;;;4976001;28;20113;-73
2022/02/15 07:32:23;;;;;;;17.67;8.23;;;9.80;94.00;;;;;;4992434;28;20054;-78
2022/02/15 07:34:50;;;;;;;13.52;7.57;;;9.70;93.90;;;;;;4993206;28;20034;-78
2022/02/15 07:37:16;;;;;;;14.45;8.32;;;9.80;93.90;;;;;;4993176;28;20080;-76
2022/02/15 07:39:41;;;;;;;16.15;8.77;;;9.80;93.80;;;;;;4993081;28;20423;-75
2022/02/15 07:42:08;;;;;;;15.40;7.50;;;9.80;93.90;;;;;;4993551;28;20040;-77
2022/02/15 07:44:34;;;;;;;12.88;7.10;;;9.80;93.80;;;;;;4993095;28;20030;-77
2022/02/15 07:46:59;;;;;;;14.98;7.55;;;9.90;93.80;;;;;;4992849;28;20485;-77
2022/02/15 07:49:25;;;;;;;13.38;7.32;;;9.90;93.70;;;;;;4993088;28;20368;-78
2022/02/15 07:51:53;;;;;;;13.75;6.43;;;9.80;93.60;;;;;;4975613;28;20482;-80
2022/02/15 07:54:19;;;;;;;12.68;6.40;;;9.80;93.60;;;;;;4992830;28;20014;-78
2022/02/15 07:56:46;;;;;;;10.80;6.25;;;9.70;93.60;;;;;;4993263;28;20030;-79
2022/02/15 07:59:12;;;;;;;14.63;7.47;;;9.70;93.60;;;;;;4976057;28;20054;-79
2022/02/15 08:01:38;;;;;;;15.13;6.40;;;9.70;93.70;;;;;;4992544;28;20275;-79
2022/02/15 08:04:04;;;;;;;13.10;6.88;;;9.80;93.70;;;;;;4994547;28;20618;-77
2022/02/15 08:06:30;;;;;;;17.50;6.63;;;9.90;93.60;;;;;;4993143;28;20030;-78
2022/02/15 08:08:57;;;;;;;13.32;6.53;;;9.90;93.60;;;;;;4992039;28;20049;-78
2022/02/15 08:11:24;;;;;;;13.07;6.70;;;9.70;93.70;;;;;;4992921;28;20065;-80
2022/02/15 08:13:51;;;;;;;10.95;6.60;;;9.80;93.70;;;;;;4992367;28;20035;-80
2022/02/15 08:16:17;;;;;;;14.98;6.50;;;9.90;93.70;;;;;;4993129;28;20034;-78
2022/02/15 08:18:43;;;;;;;12.73;6.78;;;9.90;93.60;;;;;;4992579;28;20329;-81
2022/02/15 08:21:10;;;;;;;10.32;7.15;;;9.90;93.60;;;;;;4993125;28;20041;-78
2022/02/15 08:23:37;;;;;;;13.17;6.20;;;9.80;93.70;;;;;;4992310;28;20050;-77
2022/02/15 08:26:04;;;;;;;15.73;6.25;;;9.90;93.70;;;;;;4991213;28;20036;-80
2022/02/15 08:28:31;;;;;;;11.73;5.80;;;9.80;93.60;;;;;;4992098;28;20266;-78
2022/02/15 08:30:57;;;;;;;12.82;6.43;;;9.90;93.60;;;;;;4991033;28;20034;-79
2022/02/15 08:33:22;;;;;;;10.43;6.30;;;9.90;93.60;;;;;;4992481;28;20445;-77
2022/02/15 08:35:48;;;;;;;11.52;5.95;;;10.00;93.10;;;;;;4992197;28;20038;-77
2022/02/15 08:38:14;;;;;;;14.70;6.60;;;9.90;93.50;;;;;;4991098;28;20088;-77
2022/02/15 08:40:40;;;;;;;12.02;5.45;;;9.90;93.60;;;;;;4992155;28;20054;-80
2022/02/15 08:43:05;;;;;;;9.38;5.65;;;10.00;93.10;;;;;;4974911;28;20027;-79
2022/02/15 08:45:31;;;;;;;14.38;6.43;;;10.00;93.00;;;;;;4992403;28;20023;-79
2022/02/15 08:47:57;;;;;;;11.05;5.55;;;10.10;93.00;;;;;;4992045;28;20092;-76
2022/02/15 08:50:22;;;;;;;14.07;6.63;;;10.10;92.90;;;;;;4991921;28;20361;-80
2022/02/15 08:52:48;;;;;;;10.70;5.68;;;10.10;92.90;;;;;;4974502;28;20042;-74
2022/02/15 08:55:14;;;;;;;10.88;6.65;;;10.10;92.80;;;;;;4992632;28;20109;-82
2022/02/15 08:57:40;;;;;;;11.93;6.80;;;10.10;92.80;;;;;;4975517;28;20121;-74
2022/02/15 09:00:09;;;;;;;12.65;6.15;;;10.10;92.90;;;;;;4992264;28;20037;-78
2022/02/15 09:02:37;;;;;;;11.85;6.35;;;10.20;92.90;;;;;;4992244;28;20027;-79
2022/02/15 09:05:07;;;;;;;12.15;6.28;;;10.20;92.90;;;;;;4991569;28;20088;-74
2022/02/15 09:07:33;;;;;;;12.57;6.07;;;10.30;93.00;;;;;;4991591;28;20038;-75
2022/02/15 09:09:58;;;;;;;17.60;6.57;;;10.30;92.80;;;;;;4991631;28;20429;-77
2022/02/15 09:12:24;;;;;;;13.93;6.72;;;10.20;92.80;;;;;;4973936;28;20409;-79
2022/02/15 09:14:50;;;;;;;12.23;6.15;;;10.20;92.80;;;;;;4992409;28;20476;-78
2022/02/15 09:17:16;;;;;;;12.90;5.97;;;10.30;92.90;;;;;;4991716;28;20027;-79
2022/02/15 09:19:41;;;;;;;17.92;8.05;;;10.40;92.90;;;;;;4991657;28;20188;-78
2022/02/15 09:22:07;;;;;;;13.85;7.85;;;10.50;92.70;;;;;;4974339;28;20129;-77
2022/02/15 09:24:32;;;;;;;16.80;7.47;;;10.70;92.60;;;;;;4992039;28;20105;-75
2022/02/15 09:26:58;;;;;;;12.30;7.30;;;10.70;92.40;;;;;;4991473;28;20042;-75
2022/02/15 09:29:24;;;;;;;11.48;7.07;;;10.90;92.20;;;;;;4991310;28;20042;-76
2022/02/15 09:31:49;;;;;;;13.73;7.68;;;11.10;92.30;;;;;;4991601;28;20045;-77
2022/02/15 09:34:15;;;;;;;13.13;7.18;;;11.30;91.70;;;;;;4991205;28;20026;-75
2022/02/15 09:36:41;;;;;;;11.75;6.80;;;11.50;91.60;;;;;;4997308;28;20495;-75
2022/02/15 09:39:08;;;;;;;11.15;6.25;;;11.50;91.30;;;;;;4997456;28;20033;-75
2022/02/15 09:41:34;;;;;;;12.35;6.68;;;11.50;91.10;;;;;;4997118;28;20500;-76
2022/02/15 09:44:06;;;;;;;10.10;6.25;;;11.70;90.90;;;;;;4994054;28;20210;-75
2022/02/15 09:46:33;;;;;;;10.32;6.15;;;11.80;91.00;;;;;;4993119;28;20066;-75
2022/02/15 09:49:01;;;;;;;15.63;7.00;;;11.60;90.60;;;;;;4992903;28;20436;-75
2022/02/15 09:51:27;;;;;;;11.07;6.30;;;11.70;90.90;;;;;;4994641;28;20042;-75
2022/02/15 09:53:53;;;;;;;10.25;6.10;;;11.90;90.60;;;;;;4990101;28;20105;-75
2022/02/15 09:56:19;;;;;;;14.98;6.45;;;12.00;90.50;;;;;;4991683;28;20153;-79
2022/02/15 09:58:45;;;;;;;17.08;8.93;;;12.20;90.40;;;;;;4992807;28;20057;-80
2022/02/15 10:01:12;;;;;;;22.33;10.50;;;12.20;90.10;;;;;;4991742;28;20045;-76
2022/02/15 10:03:58;;;;;;;13.23;7.45;;;12.10;90.10;;;;;;4991444;28;20027;-77
2022/02/15 10:06:28;;;;;;;9.75;5.93;;;12.10;90.00;;;;;;4994098;28;20011;-76
2022/02/15 10:08:59;;;;;;;11.60;5.53;;;11.90;90.10;;;;;;4993080;28;20058;-78
2022/02/15 10:11:37;;;;;;;11.57;6.03;;;12.00;90.20;;;;;;4991900;28;20096;-79
2022/02/15 10:14:04;;;;;;;9.07;5.10;;;11.80;90.00;;;;;;4992562;28;20030;-79
2022/02/15 10:16:31;;;;;;;7.70;5.15;;;11.70;90.20;;;;;;4991770;28;20027;-81
2022/02/15 10:18:58;;;;;;;13.05;5.85;;;11.60;90.20;;;;;;4991912;28;20089;-79
2022/02/15 10:21:28;;;;;;;11.70;6.43;;;11.40;90.50;;;;;;4992270;28;20022;-77
2022/02/15 10:23:53;;;;;;;11.63;5.25;;;11.30;90.50;;;;;;4992387;28;20045;-80
2022/02/15 10:26:19;;;;;;;9.25;5.40;;;11.40;90.70;;;;;;4994622;28;20479;-79
2022/02/15 10:28:45;;;;;;;13.45;5.38;;;11.50;90.70;;;;;;4994423;28;20042;-78
2022/02/15 10:31:14;;;;;;;9.13;5.63;;;11.50;90.60;;;;;;4994518;28;20089;-78
2022/02/15 10:33:42;;;;;;;10.52;5.40;;;11.50;90.30;;;;;;4994230;28;20023;-81
2022/02/15 10:36:08;;;;;;;;;;;11.30;90.50;;;;;;4994557;28;20430;-78
2022/02/15 10:38:38;;;;;;;10.07;5.13;;;11.30;90.70;;;;;;4994301;28;19933;-78
2022/02/15 10:41:06;;;;;;;11.27;5.95;;;11.20;90.50;;;;;;4993440;28;20026;-78
2022/02/15 10:43:47;;;;;;;10.15;5.57;;;10.90;90.80;;;;;;4994189;28;20089;-79
2022/02/15 10:46:15;;;;;;;11.68;5.60;;;11.00;91.10;;;;;;4994258;28;20237;-75
2022/02/15 10:48:41;;;;;;;;;;;11.00;91.70;;;;;;4994859;28;20048;-79
2022/02/15 10:51:06;;;;;;;12.02;4.40;;;10.90;91.50;;;;;;4993598;28;20320;-77
2022/02/15 10:53:33;;;;;;;9.02;3.95;;;10.90;91.70;;;;;;4994074;28;20431;-78
2022/02/15 10:55:59;;;;;;;7.57;4.35;;;11.10;91.50;;;;;;4993764;28;20038;-81
2022/02/15 10:58:25;;;;;;;5.53;3.78;;;10.80;91.70;;;;;;4994238;28;20161;-78
2022/02/15 11:00:51;;;;;;;7.90;4.65;;;10.60;92.40;;;;;;4994075;28;20033;-80
2022/02/15 11:03:21;;;;;;;6.45;4.47;;;10.60;92.80;;;;;;4993128;28;20026;-78
2022/02/15 11:05:48;;;;;;;11.90;5.07;;;10.70;93.20;;;;;;4976974;28;20026;-77
2022/02/15 11:08:15;;;;;;;8.75;5.40;;;11.20;93.20;;;;;;4993322;28;20469;-79
2022/02/15 11:10:47;;;;;;;9.10;5.90;;;12.00;92.70;;;;;;4993858;28;20391;-78
2022/02/15 11:13:14;;;;;;;6.55;5.00;;;12.40;91.60;;;;;;4993646;28;20034;-78
2022/02/15 11:15:41;;;;;;;10.85;4.78;;;12.40;90.40;;;;;;4994008;28;20030;-77
2022/02/15 11:18:19;;;;;;;8.75;5.07;;;12.60;90.70;;;;;;4993428;28;20041;-78
2022/02/15 11:20:51;;;;;;;13.85;5.90;;;13.40;90.20;;;;;;4994649;28;20030;-78
2022/02/15 11:23:18;;;;;;;10.05;6.78;;;13.80;87.70;;;;;;4993839;28;20030;-79
2022/02/15 11:25:45;;;;;;;19.63;8.85;;;13.30;87.80;;;;;;4993045;28;20132;-77
2022/02/15 11:28:16;;;;;;;14.13;8.70;;;13.40;87.60;;;;;;4992212;28;20467;-77
2022/02/15 11:30:43;;;;;;;14.82;9.82;;;13.40;88.70;;;;;;4992973;28;20038;-81
2022/02/15 11:33:09;;;;;;;14.35;9.32;;;13.00;88.70;;;;;;4994374;28;20097;-77
2022/02/15 11:35:34;;;;;;;15.20;10.00;;;12.90;89.10;;;;;;4992384;28;20097;-82
2022/02/15 11:38:09;;;;;;;15.73;10.38;;;12.90;89.20;;;;;;4993583;28;20479;-81
2022/02/15 11:40:34;;;;;;;15.48;9.50;;;12.60;89.00;;;;;;4993486;28;20057;-78
2022/02/15 11:43:04;;;;;;;19.80;9.93;;;12.10;89.50;;;;;;4993016;28;20034;-78
2022/02/15 11:45:30;;;;;;;17.05;10.02;;;12.00;90.10;;;;;;4993668;28;20025;-77
2022/02/15 11:48:09;;;;;;;14.75;9.98;;;12.10;90.10;;;;;;4992876;28;20371;-78
2022/02/15 11:50:49;;;;;;;15.50;9.30;;;12.40;90.10;;;;;;4993495;28;20089;-78
2022/02/15 11:53:20;;;;;;;14.48;10.05;;;12.10;90.00;;;;;;4992068;28;20487;-78
2022/02/15 11:55:47;;;;;;;18.77;10.55;;;11.90;90.10;;;;;;4992594;28;20391;-76
2022/02/15 11:58:14;;;;;;;21.20;10.23;;;11.80;90.00;;;;;;4975424;28;20034;-77
2022/02/15 12:00:41;;;;;;;16.33;10.50;;;11.90;90.20;;;;;;4992693;28;20077;-75
2022/02/15 12:03:13;;;;;;;17.95;11.00;;;11.40;90.30;;;;;;4993117;28;20435;-77
2022/02/15 12:05:44;;;;;;;16.40;9.93;;;11.50;90.60;;;;;;4992772;28;20050;-77
2022/02/15 12:08:11;;;;;;;18.65;11.05;;;11.60;90.40;;;;;;4993118;28;20033;-78
2022/02/15 12:10:38;;;;;;;17.65;11.48;;;11.70;90.40;;;;;;4992639;28;20054;-75
2022/02/15 12:13:04;;;;;;;16.90;11.00;;;11.60;90.50;;;;;;4992701;28;20045;-75
2022/02/15 12:15:36;;;;;;;21.02;11.90;;;11.70;90.40;;;;;;4993191;28;20032;-77
2022/02/15 12:18:03;;;;;;;21.95;13.20;;;11.60;90.30;;;;;;4992848;28;20113;-75
2022/02/15 12:20:29;;;;;;;20.73;10.38;;;11.60;90.40;;;;;;4992573;28;20121;-77
2022/02/15 12:22:55;;;;;;;20.25;11.20;;;11.70;90.40;;;;;;4992288;28;20126;-75
2022/02/15 12:25:21;;;;;;;23.45;11.73;;;11.70;90.20;;;;;;4974963;28;20050;-73
2022/02/15 12:27:47;;;;;;;22.30;12.35;;;11.80;90.00;;;;;;4992091;28;20026;-76
2022/02/15 12:30:15;;;;;;;19.67;12.63;;;11.70;90.20;;;;;;4992422;28;20121;-78
2022/02/15 12:32:43;;;;;;;;;;;11.70;90.20;;;;;;4992672;28;20042;-76
2022/02/15 12:35:09;;;;;;;;;;;11.60;90.30;;;;;;4991601;28;20461;-77
2022/02/15 12:37:35;;;;;;;18.67;11.52;;;11.60;90.10;;;;;;4991139;28;19968;-77
2022/02/15 12:40:03;;;;;;;25.90;12.25;;;11.50;90.20;;;;;;4992081;28;20038;-78
2022/02/15 12:42:29;;;;;;;;;;;11.60;90.20;;;;;;4993129;28;20092;-77
2022/02/15 12:45:01;;;;;;;19.48;11.68;;;11.80;90.20;;;;;;4992307;28;19918;-77
2022/02/15 12:47:29;;;;;;;25.00;12.88;;;11.80;89.80;;;;;;4990743;28;20096;-75
2022/02/15 12:49:56;;;;;;;21.08;12.65;;;11.90;90.10;;;;;;4992342;28;20092;-75
2022/02/15 12:52:23;;;;;;;20.00;12.10;;;11.70;89.30;;;;;;4992014;28;20138;-76